sensor_id;sensor_type;location;lat;lon;timestamp;pressure;altitude;pressure_sealevel;temperature
28803;BMP280;15949;55.656;37.422;2022-12-07T00:01:23;100557.34;;;-9.72
28803;BMP280;15949;55.656;37.422;2022-12-07T00:06:29;100556.75;;;-9.80
28803;BMP280;15949;55.656;37.422;2022-12-07T00:11:34;100550.09;;;-9.75
28803;BMP280;15949;55.656;37.422;2022-12-07T00:16:40;100549.53;;;-9.83
28803;BMP280;15949;55.656;37.422;2022-12-07T00:21:46;100548.50;;;-9.87
28803;BMP280;15949;55.656;37.422;2022-12-07T00:26:52;100542.28;;;-9.91
28803;BMP280;15949;55.656;37.422;2022-12-07T00:31:57;100532.97;;;-9.97
28803;BMP280;15949;55.656;37.422;2022-12-07T00:37:03;100547.66;;;-9.97
28803;BMP280;15949;55.656;37.422;2022-12-07T00:42:09;100548.44;;;-9.97
28803;BMP280;15949;55.656;37.422;2022-12-07T00:47:14;100547.06;;;-10.15
28803;BMP280;15949;55.656;37.422;2022-12-07T00:52:20;100544.81;;;-10.01
28803;BMP280;15949;55.656;37.422;2022-12-07T00:57:25;100543.25;;;-10.02
28803;BMP280;15949;55.656;37.422;2022-12-07T01:02:31;100534.47;;;-10.06
28803;BMP280;15949;55.656;37.422;2022-12-07T01:07:37;100546.06;;;-10.09
28803;BMP280;15949;55.656;37.422;2022-12-07T01:12:42;100539.00;;;-10.24
28803;BMP280;15949;55.656;37.422;2022-12-07T01:17:48;100544.69;;;-10.16
28803;BMP280;15949;55.656;37.422;2022-12-07T01:22:54;100536.94;;;-10.22
28803;BMP280;15949;55.656;37.422;2022-12-07T01:27:59;100534.91;;;-10.20
28803;BMP280;15949;55.656;37.422;2022-12-07T01:33:05;100533.56;;;-10.27
28803;BMP280;15949;55.656;37.422;2022-12-07T01:38:10;100536.19;;;-10.22
28803;BMP280;15949;55.656;37.422;2022-12-07T01:43:17;100518.66;;;-10.20
28803;BMP280;15949;55.656;37.422;2022-12-07T01:48:39;100513.44;;;-10.30
28803;BMP280;15949;55.656;37.422;2022-12-07T01:53:45;100514.28;;;-10.25
28803;BMP280;15949;55.656;37.422;2022-12-07T01:58:52;100517.03;;;-10.31
28803;BMP280;15949;55.656;37.422;2022-12-07T02:03:58;100506.78;;;-10.26
28803;BMP280;15949;55.656;37.422;2022-12-07T02:09:04;100501.81;;;-10.38
28803;BMP280;15949;55.656;37.422;2022-12-07T02:14:10;100507.03;;;-10.28
28803;BMP280;15949;55.656;37.422;2022-12-07T02:19:49;100500.31;;;-10.29
28803;BMP280;15949;55.656;37.422;2022-12-07T02:30:33;100503.81;;;-10.40
28803;BMP280;15949;55.656;37.422;2022-12-07T02:35:53;100487.91;;;-10.37
28803;BMP280;15949;55.656;37.422;2022-12-07T02:41:09;100486.84;;;-10.41
28803;BMP280;15949;55.656;37.422;2022-12-07T02:46:22;100488.38;;;-10.40
28803;BMP280;15949;55.656;37.422;2022-12-07T02:51:32;100489.41;;;-10.46
28803;BMP280;15949;55.656;37.422;2022-12-07T03:18:13;100487.16;;;-10.37
28803;BMP280;15949;55.656;37.422;2022-12-07T03:23:23;100476.53;;;-10.41
28803;BMP280;15949;55.656;37.422;2022-12-07T03:28:38;100478.59;;;-10.43
28803;BMP280;15949;55.656;37.422;2022-12-07T03:44:43;100469.81;;;-10.47
28803;BMP280;15949;55.656;37.422;2022-12-07T03:49:54;100470.63;;;-10.42
28803;BMP280;15949;55.656;37.422;2022-12-07T03:55:31;100462.59;;;-10.45
28803;BMP280;15949;55.656;37.422;2022-12-07T04:00:38;100469.31;;;-10.44
28803;BMP280;15949;55.656;37.422;2022-12-07T04:05:44;100448.72;;;-10.44
28803;BMP280;15949;55.656;37.422;2022-12-07T04:10:50;100455.94;;;-10.41
28803;BMP280;15949;55.656;37.422;2022-12-07T04:15:55;100454.63;;;-10.44
28803;BMP280;15949;55.656;37.422;2022-12-07T04:21:01;100458.53;;;-10.36
28803;BMP280;15949;55.656;37.422;2022-12-07T04:26:06;100451.28;;;-10.44
28803;BMP280;15949;55.656;37.422;2022-12-07T04:31:12;100460.56;;;-10.48
28803;BMP280;15949;55.656;37.422;2022-12-07T04:36:18;100453.84;;;-10.49
28803;BMP280;15949;55.656;37.422;2022-12-07T04:41:25;100451.81;;;-10.42
28803;BMP280;15949;55.656;37.422;2022-12-07T04:46:34;100442.53;;;-10.48
28803;BMP280;15949;55.656;37.422;2022-12-07T04:51:39;100441.22;;;-10.46
28803;BMP280;15949;55.656;37.422;2022-12-07T04:56:46;100449.25;;;-10.42
28803;BMP280;15949;55.656;37.422;2022-12-07T05:01:51;100443.03;;;-10.46
28803;BMP280;15949;55.656;37.422;2022-12-07T05:06:57;100442.00;;;-10.40
28803;BMP280;15949;55.656;37.422;2022-12-07T05:12:03;100448.72;;;-10.44
28803;BMP280;15949;55.656;37.422;2022-12-07T05:17:08;100451.34;;;-10.39
28803;BMP280;15949;55.656;37.422;2022-12-07T05:22:14;100458.81;;;-10.37
28803;BMP280;15949;55.656;37.422;2022-12-07T05:27:20;100457.25;;;-10.39
28803;BMP280;15949;55.656;37.422;2022-12-07T05:32:26;100456.47;;;-10.39
28803;BMP280;15949;55.656;37.422;2022-12-07T05:37:32;100456.97;;;-10.42
28803;BMP280;15949;55.656;37.422;2022-12-07T05:42:38;100453.34;;;-10.41
28803;BMP280;15949;55.656;37.422;2022-12-07T05:47:44;100443.09;;;-10.36
28803;BMP280;15949;55.656;37.422;2022-12-07T05:52:49;100448.00;;;-10.40
28803;BMP280;15949;55.656;37.422;2022-12-07T05:57:55;100439.50;;;-10.35
28803;BMP280;15949;55.656;37.422;2022-12-07T06:03:19;100439.44;;;-10.40
28803;BMP280;15949;55.656;37.422;2022-12-07T06:08:25;100439.50;;;-10.35
28803;BMP280;15949;55.656;37.422;2022-12-07T06:13:30;100441.56;;;-10.37
28803;BMP280;15949;55.656;37.422;2022-12-07T06:18:36;100448.31;;;-10.26
28803;BMP280;15949;55.656;37.422;2022-12-07T06:23:42;100442.63;;;-10.28
28803;BMP280;15949;55.656;37.422;2022-12-07T06:28:47;100444.72;;;-10.25
28803;BMP280;15949;55.656;37.422;2022-12-07T06:34:00;100449.34;;;-10.27
28803;BMP280;15949;55.656;37.422;2022-12-07T06:39:07;100441.81;;;-10.33
28803;BMP280;15949;55.656;37.422;2022-12-07T06:44:14;100438.22;;;-10.32
28803;BMP280;15949;55.656;37.422;2022-12-07T06:49:20;100441.63;;;-10.27
28803;BMP280;15949;55.656;37.422;2022-12-07T06:54:25;100439.25;;;-10.28
28803;BMP280;15949;55.656;37.422;2022-12-07T06:59:31;100431.78;;;-10.30
28803;BMP280;15949;55.656;37.422;2022-12-07T07:04:37;100445.69;;;-10.31
28803;BMP280;15949;55.656;37.422;2022-12-07T07:09:43;100439.50;;;-10.30
28803;BMP280;15949;55.656;37.422;2022-12-07T07:14:49;100446.25;;;-10.24
28803;BMP280;15949;55.656;37.422;2022-12-07T07:19:55;100445.72;;;-10.21
28803;BMP280;15949;55.656;37.422;2022-12-07T07:25:01;100433.94;;;-10.11
28803;BMP280;15949;55.656;37.422;2022-12-07T07:30:07;100430.88;;;-10.03
28803;BMP280;15949;55.656;37.422;2022-12-07T07:35:13;100428.78;;;-10.06
28803;BMP280;15949;55.656;37.422;2022-12-07T07:40:19;100428.03;;;-10.07
28803;BMP280;15949;55.656;37.422;2022-12-07T07:45:26;100423.44;;;-9.94
28803;BMP280;15949;55.656;37.422;2022-12-07T07:50:32;100416.97;;;-9.97
28803;BMP280;15949;55.656;37.422;2022-12-07T07:55:37;100423.72;;;-9.81
28803;BMP280;15949;55.656;37.422;2022-12-07T08:00:43;100422.16;;;-9.82
28803;BMP280;15949;55.656;37.422;2022-12-07T08:05:49;100418.34;;;-9.69
28803;BMP280;15949;55.656;37.422;2022-12-07T08:10:55;100417.31;;;-9.68
28803;BMP280;15949;55.656;37.422;2022-12-07T08:16:09;100419.13;;;-9.58
28803;BMP280;15949;55.656;37.422;2022-12-07T08:21:15;100414.50;;;-9.56
28803;BMP280;15949;55.656;37.422;2022-12-07T08:26:20;100417.38;;;-9.42
28803;BMP280;15949;55.656;37.422;2022-12-07T08:31:26;100416.84;;;-9.34
28803;BMP280;15949;55.656;37.422;2022-12-07T08:36:33;100408.09;;;-9.33
28803;BMP280;15949;55.656;37.422;2022-12-07T08:41:38;100408.88;;;-9.22
28803;BMP280;15949;55.656;37.422;2022-12-07T08:46:51;100401.38;;;-9.13
28803;BMP280;15949;55.656;37.422;2022-12-07T08:51:59;100403.19;;;-8.98
28803;BMP280;15949;55.656;37.422;2022-12-07T08:57:05;100396.47;;;-8.89
28803;BMP280;15949;55.656;37.422;2022-12-07T09:02:11;100391.53;;;-8.75
28803;BMP280;15949;55.656;37.422;2022-12-07T09:07:17;100384.00;;;-8.67
28803;BMP280;15949;55.656;37.422;2022-12-07T09:12:22;100388.09;;;-8.50
28803;BMP280;15949;55.656;37.422;2022-12-07T09:17:32;100371.53;;;-8.44
28803;BMP280;15949;55.656;37.422;2022-12-07T09:22:38;100371.47;;;-8.29
28803;BMP280;15949;55.656;37.422;2022-12-07T09:27:43;100364.94;;;-8.16
28803;BMP280;15949;55.656;37.422;2022-12-07T09:32:49;100357.91;;;-8.05
28803;BMP280;15949;55.656;37.422;2022-12-07T09:37:54;100349.06;;;-7.99
28803;BMP280;15949;55.656;37.422;2022-12-07T09:43:00;100355.59;;;-8.07
28803;BMP280;15949;55.656;37.422;2022-12-07T09:48:22;100352.66;;;-7.95
28803;BMP280;15949;55.656;37.422;2022-12-07T09:53:33;100340.56;;;-8.05
28803;BMP280;15949;55.656;37.422;2022-12-07T09:58:39;100332.00;;;-8.00
28803;BMP280;15949;55.656;37.422;2022-12-07T10:03:55;100329.88;;;-7.88
28803;BMP280;15949;55.656;37.422;2022-12-07T10:09:12;100328.75;;;-7.76
28803;BMP280;15949;55.656;37.422;2022-12-07T10:14:18;100330.28;;;-7.75
28803;BMP280;15949;55.656;37.422;2022-12-07T10:19:32;100316.84;;;-7.77
28803;BMP280;15949;55.656;37.422;2022-12-07T10:24:40;100319.22;;;-7.86
28803;BMP280;15949;55.656;37.422;2022-12-07T10:29:51;100316.34;;;-7.79
28803;BMP280;15949;55.656;37.422;2022-12-07T10:35:28;100322.03;;;-7.77
28803;BMP280;15949;55.656;37.422;2022-12-07T10:40:35;100306.75;;;-7.74
28803;BMP280;15949;55.656;37.422;2022-12-07T10:57:05;100282.81;;;-7.90
28803;BMP280;15949;55.656;37.422;2022-12-07T11:35:11;100255.97;;;-7.94
28803;BMP280;15949;55.656;37.422;2022-12-07T11:40:31;100257.00;;;-7.95
28803;BMP280;15949;55.656;37.422;2022-12-07T11:45:42;100242.75;;;-8.27
28803;BMP280;15949;55.656;37.422;2022-12-07T11:50:55;100246.44;;;-8.38
28803;BMP280;15949;55.656;37.422;2022-12-07T11:56:09;100234.78;;;-8.35
28803;BMP280;15949;55.656;37.422;2022-12-07T12:06:43;100237.63;;;-8.81
28803;BMP280;15949;55.656;37.422;2022-12-07T12:22:40;100220.97;;;-9.05
28803;BMP280;15949;55.656;37.422;2022-12-07T12:27:48;100213.75;;;-9.13
28803;BMP280;15949;55.656;37.422;2022-12-07T12:33:02;100216.13;;;-9.32
28803;BMP280;15949;55.656;37.422;2022-12-07T12:43:45;100227.00;;;-9.40
28803;BMP280;15949;55.656;37.422;2022-12-07T12:48:54;100227.75;;;-9.39
28803;BMP280;15949;55.656;37.422;2022-12-07T12:54:12;100219.50;;;-9.42
28803;BMP280;15949;55.656;37.422;2022-12-07T12:59:30;100220.31;;;-9.46
28803;BMP280;15949;55.656;37.422;2022-12-07T13:04:40;100215.94;;;-9.82
28803;BMP280;15949;55.656;37.422;2022-12-07T13:09:53;100207.44;;;-9.72
28803;BMP280;15949;55.656;37.422;2022-12-07T13:14:59;100203.59;;;-9.90
28803;BMP280;15949;55.656;37.422;2022-12-07T13:20:06;100210.28;;;-9.89
28803;BMP280;15949;55.656;37.422;2022-12-07T13:25:33;100212.56;;;-9.92
28803;BMP280;15949;55.656;37.422;2022-12-07T13:31:01;100204.91;;;-10.03
28803;BMP280;15949;55.656;37.422;2022-12-07T13:41:27;100187.88;;;-10.09
28803;BMP280;15949;55.656;37.422;2022-12-07T13:57:20;100185.56;;;-10.05
28803;BMP280;15949;55.656;37.422;2022-12-07T14:02:28;100189.41;;;-10.13
28803;BMP280;15949;55.656;37.422;2022-12-07T14:07:34;100174.97;;;-10.19
28803;BMP280;15949;55.656;37.422;2022-12-07T14:12:42;100179.88;;;-10.17
28803;BMP280;15949;55.656;37.422;2022-12-07T14:17:52;100175.72;;;-10.34
28803;BMP280;15949;55.656;37.422;2022-12-07T14:22:59;100171.66;;;-10.25
28803;BMP280;15949;55.656;37.422;2022-12-07T14:28:04;100174.75;;;-10.23
28803;BMP280;15949;55.656;37.422;2022-12-07T14:33:10;100187.81;;;-10.29
28803;BMP280;15949;55.656;37.422;2022-12-07T14:38:15;100174.19;;;-10.30
28803;BMP280;15949;55.656;37.422;2022-12-07T14:43:23;100181.91;;;-10.45
28803;BMP280;15949;55.656;37.422;2022-12-07T14:48:29;100175.75;;;-10.29
28803;BMP280;15949;55.656;37.422;2022-12-07T14:53:37;100173.19;;;-10.24
28803;BMP280;15949;55.656;37.422;2022-12-07T14:58:44;100169.03;;;-10.30
28803;BMP280;15949;55.656;37.422;2022-12-07T15:03:50;100170.06;;;-10.36
28803;BMP280;15949;55.656;37.422;2022-12-07T15:08:55;100169.56;;;-10.38
28803;BMP280;15949;55.656;37.422;2022-12-07T15:14:01;100159.28;;;-10.28
28803;BMP280;15949;55.656;37.422;2022-12-07T15:19:21;100158.72;;;-10.30
28803;BMP280;15949;55.656;37.422;2022-12-07T15:24:31;100158.72;;;-10.45
28803;BMP280;15949;55.656;37.422;2022-12-07T15:29:36;100148.44;;;-10.30
28803;BMP280;15949;55.656;37.422;2022-12-07T15:34:42;100138.66;;;-10.33
28803;BMP280;15949;55.656;37.422;2022-12-07T15:39:47;100136.84;;;-10.32
28803;BMP280;15949;55.656;37.422;2022-12-07T15:44:53;100133.72;;;-10.29
28803;BMP280;15949;55.656;37.422;2022-12-07T15:50:13;100124.22;;;-10.29
28803;BMP280;15949;55.656;37.422;2022-12-07T15:55:19;100128.34;;;-10.33
28803;BMP280;15949;55.656;37.422;2022-12-07T16:00:25;100125.50;;;-10.31
28803;BMP280;15949;55.656;37.422;2022-12-07T16:05:30;100125.50;;;-10.42
28803;BMP280;15949;55.656;37.422;2022-12-07T16:10:36;100124.47;;;-10.30
28803;BMP280;15949;55.656;37.422;2022-12-07T16:15:42;100121.66;;;-10.34
28803;BMP280;15949;55.656;37.422;2022-12-07T16:20:48;100128.34;;;-10.33
28803;BMP280;15949;55.656;37.422;2022-12-07T16:25:54;100120.88;;;-10.34
28803;BMP280;15949;55.656;37.422;2022-12-07T16:31:02;100122.41;;;-10.44
28803;BMP280;15949;55.656;37.422;2022-12-07T16:36:08;100113.94;;;-10.39
28803;BMP280;15949;55.656;37.422;2022-12-07T16:41:14;100115.22;;;-10.42
28803;BMP280;15949;55.656;37.422;2022-12-07T16:46:20;100117.03;;;-10.37
28803;BMP280;15949;55.656;37.422;2022-12-07T16:51:26;100103.88;;;-10.61
28803;BMP280;15949;55.656;37.422;2022-12-07T16:56:32;100102.88;;;-10.40
28803;BMP280;15949;55.656;37.422;2022-12-07T17:01:37;100093.34;;;-10.39
28803;BMP280;15949;55.656;37.422;2022-12-07T17:06:43;100095.16;;;-10.40
28803;BMP280;15949;55.656;37.422;2022-12-07T17:11:48;100085.59;;;-10.39
28803;BMP280;15949;55.656;37.422;2022-12-07T17:16:54;100087.94;;;-10.37
28803;BMP280;15949;55.656;37.422;2022-12-07T17:22:00;100091.25;;;-10.42
28803;BMP280;15949;55.656;37.422;2022-12-07T17:27:05;100086.59;;;-10.40
28803;BMP280;15949;55.656;37.422;2022-12-07T17:32:11;100085.06;;;-10.41
28803;BMP280;15949;55.656;37.422;2022-12-07T17:37:16;100083.53;;;-10.37
28803;BMP280;15949;55.656;37.422;2022-12-07T17:42:26;100072.22;;;-10.46
28803;BMP280;15949;55.656;37.422;2022-12-07T17:47:41;100081.47;;;-10.45
28803;BMP280;15949;55.656;37.422;2022-12-07T17:52:46;100088.44;;;-10.35
28803;BMP280;15949;55.656;37.422;2022-12-07T17:58:10;100077.59;;;-10.43
28803;BMP280;15949;55.656;37.422;2022-12-07T18:03:16;100077.38;;;-10.46
28803;BMP280;15949;55.656;37.422;2022-12-07T18:08:22;100065.00;;;-10.44
28803;BMP280;15949;55.656;37.422;2022-12-07T18:13:27;100060.34;;;-10.47
28803;BMP280;15949;55.656;37.422;2022-12-07T18:18:43;100059.84;;;-10.44
28803;BMP280;15949;55.656;37.422;2022-12-07T18:23:51;100070.16;;;-10.44
28803;BMP280;15949;55.656;37.422;2022-12-07T18:28:59;100070.66;;;-10.37
28803;BMP280;15949;55.656;37.422;2022-12-07T18:34:07;100071.69;;;-10.43
28803;BMP280;15949;55.656;37.422;2022-12-07T18:39:17;100056.22;;;-10.53
28803;BMP280;15949;55.656;37.422;2022-12-07T18:44:23;100057.53;;;-10.46
28803;BMP280;15949;55.656;37.422;2022-12-07T18:49:29;100047.47;;;-10.58
28803;BMP280;15949;55.656;37.422;2022-12-07T18:54:34;100030.00;;;-10.50
28803;BMP280;15949;55.656;37.422;2022-12-07T18:59:40;100031.25;;;-10.53
28803;BMP280;15949;55.656;37.422;2022-12-07T19:04:53;100030.72;;;-10.45
28803;BMP280;15949;55.656;37.422;2022-12-07T19:09:59;100029.47;;;-10.47
28803;BMP280;15949;55.656;37.422;2022-12-07T19:15:06;100030.47;;;-10.43
28803;BMP280;15949;55.656;37.422;2022-12-07T19:20:13;100026.63;;;-10.46
28803;BMP280;15949;55.656;37.422;2022-12-07T19:25:19;100021.72;;;-10.58
28803;BMP280;15949;55.656;37.422;2022-12-07T19:30:25;100017.63;;;-10.48
28803;BMP280;15949;55.656;37.422;2022-12-07T19:35:30;100022.53;;;-10.62
28803;BMP280;15949;55.656;37.422;2022-12-07T19:40:36;100021.72;;;-10.52
28803;BMP280;15949;55.656;37.422;2022-12-07T19:45:41;100016.59;;;-10.52
28803;BMP280;15949;55.656;37.422;2022-12-07T19:50:47;100024.81;;;-10.71
28803;BMP280;15949;55.656;37.422;2022-12-07T19:55:53;100017.63;;;-10.48
28803;BMP280;15949;55.656;37.422;2022-12-07T20:01:02;100009.13;;;-10.54
28803;BMP280;15949;55.656;37.422;2022-12-07T20:06:10;100013.50;;;-10.54
28803;BMP280;15949;55.656;37.422;2022-12-07T20:11:18;100021.22;;;-10.49
28803;BMP280;15949;55.656;37.422;2022-12-07T20:16:43;100023.03;;;-10.50
28803;BMP280;15949;55.656;37.422;2022-12-07T20:21:50;100017.88;;;-10.65
28803;BMP280;15949;55.656;37.422;2022-12-07T20:26:56;100022.25;;;-10.55
28803;BMP280;15949;55.656;37.422;2022-12-07T20:32:01;100013.25;;;-10.58
28803;BMP280;15949;55.656;37.422;2022-12-07T20:37:07;100005.78;;;-10.70
28803;BMP280;15949;55.656;37.422;2022-12-07T20:42:13;100011.44;;;-10.58
28803;BMP280;15949;55.656;37.422;2022-12-07T20:47:37;99998.03;;;-10.60
28803;BMP280;15949;55.656;37.422;2022-12-07T20:52:43;99994.97;;;-10.51
28803;BMP280;15949;55.656;37.422;2022-12-07T20:57:49;100000.13;;;-10.56
28803;BMP280;15949;55.656;37.422;2022-12-07T21:02:54;99982.88;;;-10.71
28803;BMP280;15949;55.656;37.422;2022-12-07T21:08:01;99979.78;;;-10.73
28803;BMP280;15949;55.656;37.422;2022-12-07T21:13:07;99973.34;;;-10.61
28803;BMP280;15949;55.656;37.422;2022-12-07T21:18:12;99978.50;;;-10.61
28803;BMP280;15949;55.656;37.422;2022-12-07T21:23:18;99964.56;;;-10.44
28803;BMP280;15949;55.656;37.422;2022-12-07T21:28:25;99966.59;;;-10.31
28803;BMP280;15949;55.656;37.422;2022-12-07T21:33:32;99953.41;;;-10.19
28803;BMP280;15949;55.656;37.422;2022-12-07T21:38:37;99957.81;;;-10.30
28803;BMP280;15949;55.656;37.422;2022-12-07T21:43:44;99961.94;;;-10.24
28803;BMP280;15949;55.656;37.422;2022-12-07T21:48:58;99950.63;;;-10.23
28803;BMP280;15949;55.656;37.422;2022-12-07T21:54:04;99958.84;;;-10.15
28803;BMP280;15949;55.656;37.422;2022-12-07T21:59:13;99948.47;;;-10.05
28803;BMP280;15949;55.656;37.422;2022-12-07T22:04:22;99942.53;;;-10.06
28803;BMP280;15949;55.656;37.422;2022-12-07T22:09:28;99939.19;;;-10.01
28803;BMP280;15949;55.656;37.422;2022-12-07T22:14:34;99943.78;;;-9.88
28803;BMP280;15949;55.656;37.422;2022-12-07T22:19:58;99933.19;;;-9.86
28803;BMP280;15949;55.656;37.422;2022-12-07T22:25:04;99934.97;;;-9.76
28803;BMP280;15949;55.656;37.422;2022-12-07T22:30:11;99927.53;;;-9.88
28803;BMP280;15949;55.656;37.422;2022-12-07T22:35:16;99922.09;;;-9.76
28803;BMP280;15949;55.656;37.422;2022-12-07T22:40:22;99922.09;;;-9.76
28803;BMP280;15949;55.656;37.422;2022-12-07T22:45:28;99917.44;;;-9.74
28803;BMP280;15949;55.656;37.422;2022-12-07T22:50:34;99919.34;;;-9.56
28803;BMP280;15949;55.656;37.422;2022-12-07T22:55:40;99915.28;;;-9.62
28803;BMP280;15949;55.656;37.422;2022-12-07T23:00:45;99910.63;;;-9.65
28803;BMP280;15949;55.656;37.422;2022-12-07T23:05:51;99907.44;;;-9.47
28803;BMP280;15949;55.656;37.422;2022-12-07T23:10:58;99905.34;;;-9.45
28803;BMP280;15949;55.656;37.422;2022-12-07T23:16:12;99897.09;;;-9.47
28803;BMP280;15949;55.656;37.422;2022-12-07T23:21:18;99894.97;;;-9.34
28803;BMP280;15949;55.656;37.422;2022-12-07T23:26:23;99884.91;;;-9.36
28803;BMP280;15949;55.656;37.422;2022-12-07T23:31:29;99882.06;;;-9.34
28803;BMP280;15949;55.656;37.422;2022-12-07T23:36:35;99888.72;;;-9.28
28803;BMP280;15949;55.656;37.422;2022-12-07T23:41:40;99893.88;;;-9.28
28803;BMP280;15949;55.656;37.422;2022-12-07T23:46:46;99886.41;;;-9.30
28803;BMP280;15949;55.656;37.422;2022-12-07T23:51:52;99870.09;;;-9.25
28803;BMP280;15949;55.656;37.422;2022-12-07T23:56:57;99856.63;;;-9.17
